deformed-offering

Nearby METAR Reports

 

KNUQ - Moffett Nas/Mtn, California, USA
Distance from station: N 9mi, 14km
Updated: Mon, 22-Jul-2019 11:56am PDT
Clear
Clear
 Wind from N
Wind: N 8 mph , 13 km/h
Temperature: 79°F , 26°C
Dew Point: 63°F , 17°C
Humidity: 58%
Barometer: 29.97 inHg , 1014.9 hPa
Clouds: Clear
Visibility: 10 miles , 16 km
2019/07/22 18:56 KNUQ 221856Z 01007KT 10SM CLR 26/17 A2997 RMK AO2 SLP150 T02610167 $
KSJC - San Jose, California, USA
Distance from station: NE 9mi, 14km
Updated: Mon, 22-Jul-2019 11:53am PDT
Clear
Clear
 Wind from varies
Wind: varies 5 mph , 7 km/h
Temperature: 81°F , 27°C
Heat Index: 82°F , 28°C
Dew Point: 61°F , 16°C
Humidity: 51%
Barometer: 29.96 inHg , 1014.6 hPa
Clouds: Clear
Visibility: 10 miles , 16 km
2019/07/22 18:53 KSJC 221853Z VRB04KT 10SM CLR 27/16 A2996 RMK AO2 SLP143 T02720156
 
KRHV - San Jose/Reid, California, USA
Distance from station: ENE 12mi, 19km
Updated: Mon, 22-Jul-2019 11:47am PDT
Clear
Clear
 Wind from calm
Wind: Calm
Temperature: 81°F , 27°C
Heat Index: 81°F , 27°C
Dew Point: 57°F , 14°C
Humidity: 45%
Barometer: 29.96 inHg , 1014.6 hPa
Clouds: Clear
Visibility: 10 miles , 16 km
2019/07/22 18:47 KRHV 221847Z 00000KT 10SM SKC 27/14 A2996
KPAO - Palo Alto, California, USA
Distance from station: NNW 14mi, 23km
Updated: Mon, 22-Jul-2019 11:47am PDT
Clear
Clear
 Wind from varies
Wind: varies 5 mph , 7 km/h
Temperature: 72°F , 22°C
Dew Point: 63°F , 17°C
Humidity: 73%
Barometer: 29.97 inHg , 1014.9 hPa
Clouds: Clear
Visibility: 10 miles , 16 km
2019/07/22 18:47 KPAO 221847Z VRB04KT 10SM SKC 22/17 A2997
 
KSQL - San Carlos Airpo, California, USA
Distance from station: NW 21mi, 34km
Updated: Mon, 22-Jul-2019 11:47am PDT
Clear
Clear
 Wind from N
Wind: N 8 mph , 13 km/h
Temperature: 72°F , 22°C
Dew Point: 63°F , 17°C
Humidity: 73%
Barometer: 29.98 inHg , 1015.2 hPa
Clouds: Clear
Visibility: 10 miles , 16 km
2019/07/22 18:47 KSQL 221847Z 01007KT 10SM SKC 22/17 A2998
KE16 - San Martin, California, USA
Distance from station: ESE 27mi, 43km
Updated: Mon, 22-Jul-2019 12:10pm PDT
Clear
Clear
 Wind from NNW
Wind: NNW 5 mph , 7 km/h
Temperature: 82°F , 28°C
Heat Index: 81°F , 27°C
Dew Point: 55°F , 13°C
Humidity: 40%
Barometer: 29.97 inHg , 1014.9 hPa
Clouds: Clear
Visibility: 10 miles , 16 km
2019/07/22 19:10 KE16 221910Z AUTO 33004KT 10SM CLR 28/13 A2997 RMK AO2
 
KWVI - Watsonville, California, USA
Distance from station: SSE 27mi, 44km
Updated: Mon, 22-Jul-2019 11:53am PDT
Clear
Clear
 Wind from SSW
Wind: SSW 9 mph , 15 km/h
Temperature: 68°F , 20°C
Dew Point: 55°F , 13°C
Humidity: 64%
Barometer: 30.00 inHg , 1015.9 hPa
Clouds: Clear
Visibility: 10 miles , 16 km
2019/07/22 18:53 KWVI 221853Z AUTO 21008KT 10SM CLR 20/13 A3000 RMK AO2 SLP157 T02000133
KHWD - Hayward, California, USA
Distance from station: N 28mi, 44km
Updated: Mon, 22-Jul-2019 11:54am PDT
Clear
Clear
 Wind from W
Wind: W 8 mph , 13 km/h
Temperature: 73°F , 23°C
Dew Point: 59°F , 15°C
Humidity: 61%
Barometer: 29.97 inHg , 1014.9 hPa
Clouds: Clear
Visibility: 9 miles , 14 km
2019/07/22 18:54 KHWD 221854Z 28007KT 9SM CLR 23/15 A2997 RMK AO2 SLP157 T02330150
 
KSFO - San Francisco, California, USA
Distance from station: NW 30mi, 49km
Updated: Mon, 22-Jul-2019 11:56am PDT
Clear
Clear
 Wind from NW
Wind: NW 13 mph , 20 km/h
Temperature: 72°F , 22°C
Dew Point: 55°F , 13°C
Humidity: 57%
Barometer: 29.97 inHg , 1014.9 hPa
Clouds: Clear
Visibility: 10 miles , 16 km
2019/07/22 18:56 KSFO 221856Z 31011KT 10SM CLR 22/13 A2997 RMK AO2 SLP149 T02170133
KHAF - Half Moon Bay, California, USA
Distance from station: WNW 31mi, 50km
Updated: Mon, 22-Jul-2019 12:15pm PDT
Mostly Cloudy
Mostly Cloudy
 Wind from S
Wind: S 9 mph , 15 km/h
Temperature: 59°F , 15°C
Dew Point: 55°F , 13°C
Humidity: 88%
Barometer: 30.02 inHg , 1016.6 hPa
Clouds: Mostly Cloudy
Visibility: 7 miles , 11 km
Cloud details: Mostly Cloudy 400 ft
2019/07/22 19:15 KHAF 221915Z AUTO 17008KT 7SM BKN004 15/13 A3002 RMK AO2
 
KOAK - Oakland, California, USA
Distance from station: NNW 31mi, 50km
Updated: Mon, 22-Jul-2019 11:53am PDT
Few Clouds
Few Clouds
 Wind from WNW
Wind: WNW 9 mph , 15 km/h
Temperature: 73°F , 23°C
Dew Point: 57°F , 14°C
Humidity: 57%
Barometer: 29.98 inHg , 1015.2 hPa
Clouds: Few Clouds
Visibility: 10 miles , 16 km
Cloud details: Few Clouds 800 ft
2019/07/22 18:53 KOAK 221853Z 30008KT 10SM FEW008 23/14 A2998 RMK AO2 SLP153 T02280139
KLVK - Livermore, California, USA
Distance from station: NNE 31mi, 51km
Updated: Mon, 22-Jul-2019 11:53am PDT
Clear
Clear
 Wind from SSW
Wind: SSW 7 mph , 11 km/h
Temperature: 86°F , 30°C
Dew Point: 54°F , 12°C
Humidity: 33%
Barometer: 29.94 inHg , 1013.9 hPa
Clouds: Clear
Visibility: 10 miles , 16 km
2019/07/22 18:53 KLVK 221853Z 21006KT 10SM CLR 30/12 A2994 RMK AO2 SLP134 T03000117
 
KCVH - Hollister Muni, California, USA
Distance from station: SE 42mi, 68km
Updated: Mon, 22-Jul-2019 12:15pm PDT
Clear
Clear
 Wind from calm
Wind: Calm
Temperature: 81°F , 27°C
Heat Index: 81°F , 27°C
Dew Point: 55°F , 13°C
Humidity: 42%
Barometer: 29.96 inHg , 1014.6 hPa
Clouds: Clear
Visibility: 10 miles , 16 km
2019/07/22 19:15 KCVH 221915Z AUTO 00000KT 10SM CLR 27/13 A2996 RMK A01
KSNS - Salinas, California, USA
Distance from station: SSE 48mi, 77km
Updated: Mon, 22-Jul-2019 11:53am PDT
Clear
Clear
 Wind from NW
Wind: NW 8 mph , 13 km/h
Temperature: 73°F , 23°C
Dew Point: 55°F , 13°C
Humidity: 53%
Barometer: 29.97 inHg , 1014.9 hPa
Clouds: Clear
Visibility: 9 miles , 14 km
2019/07/22 18:53 KSNS 221853Z 31007KT 9SM CLR 23/13 A2997 RMK AO2 SLP159 T02330133
 
KMRY - Monterey, California, USA
Distance from station: SSE 49mi, 78km
Updated: Mon, 22-Jul-2019 11:54am PDT
Clear
Clear
 Wind from NW
Wind: NW 8 mph , 13 km/h
Temperature: 63°F , 17°C
Dew Point: 54°F , 12°C
Humidity: 73%
Barometer: 30.00 inHg , 1015.9 hPa
Clouds: Clear
Visibility: 10 miles , 16 km
2019/07/22 18:54 KMRY 221854Z 32007KT 10SM CLR 17/12 A3000 RMK AO2 SLP172 T01720122
KCCR - Concord, California, USA
Distance from station: N 50mi, 81km
Updated: Mon, 22-Jul-2019 11:53am PDT
Clear
Clear
 Wind from NNW
Wind: NNW 12 mph , 19 km/h
Temperature: 82°F , 28°C
Heat Index: 81°F , 27°C
Dew Point: 55°F , 13°C
Humidity: 40%
Barometer: 29.94 inHg , 1013.9 hPa
Clouds: Clear
Visibility: 10 miles , 16 km
2019/07/22 18:53 KCCR 221853Z 33010KT 10SM CLR 28/13 A2994 RMK AO2 SLP127 T02830133
deformed-offering